createdAt,value
2023-04-02T00:01:36.998Z,8.48
2023-04-02T00:04:30.206Z,8.44
2023-04-02T00:07:36.178Z,8.42
2023-04-02T00:10:41.528Z,8.37
2023-04-02T00:13:53.442Z,8.34
2023-04-02T00:16:43.878Z,8.33
2023-04-02T00:19:58.337Z,8.31
2023-04-02T00:22:53.912Z,8.30
2023-04-02T00:26:07.384Z,8.29
2023-04-02T00:29:19.068Z,8.29
2023-04-02T00:32:31.750Z,8.31
2023-04-02T00:35:33.465Z,8.32
2023-04-02T00:38:38.686Z,8.37
2023-04-02T00:41:39.080Z,8.42
2023-04-02T00:44:50.271Z,8.45
2023-04-02T00:47:41.129Z,8.48
2023-04-02T00:50:50.503Z,8.51
2023-04-02T00:53:52.083Z,8.54
2023-04-02T00:56:46.441Z,8.55
2023-04-02T00:59:56.226Z,8.53
2023-04-02T01:03:30.448Z,8.50
2023-04-02T01:06:34.371Z,8.47
2023-04-02T01:09:39.667Z,8.43
2023-04-02T01:12:38.208Z,8.42
2023-04-02T01:15:52.297Z,8.41
2023-04-02T01:19:07.639Z,8.41
2023-04-02T01:22:10.424Z,8.43
2023-04-02T01:25:25.161Z,8.45
2023-04-02T01:28:29.658Z,8.44
2023-04-02T01:31:23.011Z,8.42
2023-04-02T01:34:19.181Z,8.39
2023-04-02T01:37:36.852Z,8.36
2023-04-02T01:40:40.273Z,8.34
2023-04-02T01:43:48.598Z,8.32
2023-04-02T01:46:51.161Z,8.27
2023-04-02T01:49:50.677Z,8.25
2023-04-02T01:53:02.498Z,8.24
2023-04-02T01:56:13.268Z,8.23
2023-04-02T01:59:11.166Z,8.23
2023-04-02T02:02:04.171Z,8.25
2023-04-02T02:04:55.398Z,8.25
2023-04-02T02:08:07.278Z,8.27
2023-04-02T02:11:09.276Z,8.28
2023-04-02T02:14:04.044Z,8.28
2023-04-02T02:17:02.321Z,8.27
2023-04-02T02:20:06.983Z,8.26
2023-04-02T02:23:00.339Z,8.24
2023-04-02T02:26:13.222Z,8.21
2023-04-02T02:29:12.966Z,8.18
2023-04-02T02:32:24.965Z,8.17
2023-04-02T02:35:24.520Z,8.17
2023-04-02T02:38:32.005Z,8.17
2023-04-02T02:41:44.384Z,8.18
2023-04-02T02:44:56.144Z,8.18
2023-04-02T02:47:48.113Z,8.18
2023-04-02T02:50:44.508Z,8.19
2023-04-02T02:53:51.445Z,8.20
2023-04-02T02:56:56.280Z,8.19
2023-04-02T03:00:10.174Z,8.18
2023-04-02T03:03:07.721Z,8.16
2023-04-02T03:06:20.957Z,8.12
2023-04-02T03:09:38.247Z,8.08
2023-04-02T03:12:51.538Z,8.05
2023-04-02T03:16:03.973Z,8.00
2023-04-02T03:19:12.269Z,7.96
2023-04-02T03:22:19.239Z,7.94
2023-04-02T03:25:34.645Z,7.90
2023-04-02T03:28:32.544Z,7.88
2023-04-02T03:31:28.470Z,7.87
2023-04-02T03:34:35.315Z,7.87
2023-04-02T03:37:42.248Z,7.87
2023-04-02T03:40:57.234Z,7.89
2023-04-02T03:43:55.235Z,7.89
2023-04-02T03:47:00.690Z,7.92
2023-04-02T03:49:56.858Z,7.93
2023-04-02T03:53:06.938Z,7.90
2023-04-02T03:56:23.130Z,7.89
2023-04-02T03:59:28.447Z,7.88
2023-04-02T04:02:42.829Z,7.83
2023-04-02T04:05:55.385Z,7.79
2023-04-02T04:08:51.946Z,7.74
2023-04-02T04:11:58.456Z,7.71
2023-04-02T04:15:10.915Z,7.67
2023-04-02T04:18:30.018Z,7.64
2023-04-02T04:21:45.341Z,7.61
2023-04-02T04:24:57.436Z,7.60
2023-04-02T04:28:07.881Z,7.61
2023-04-02T04:31:18.186Z,7.61
2023-04-02T04:34:25.354Z,7.62
2023-04-02T04:37:33.795Z,7.65
2023-04-02T04:40:50.533Z,7.67
2023-04-02T04:44:07.107Z,7.67
2023-04-02T04:47:13.267Z,7.66
2023-04-02T04:50:28.683Z,7.66
2023-04-02T04:53:30.562Z,7.64
2023-04-02T04:56:35.180Z,7.59
2023-04-02T04:59:54.115Z,7.54
2023-04-02T05:03:03.708Z,7.47
2023-04-02T05:06:01.720Z,7.43
2023-04-02T05:09:16.176Z,7.40
2023-04-02T05:12:23.758Z,7.39
2023-04-02T05:15:30.764Z,7.39
2023-04-02T05:18:34.078Z,7.39
2023-04-02T05:21:35.648Z,7.40
2023-04-02T05:24:52.777Z,7.41
2023-04-02T05:28:06.819Z,7.44
2023-04-02T05:31:21.322Z,7.48
2023-04-02T05:34:27.265Z,7.52
2023-04-02T05:37:31.891Z,7.57
2023-04-02T05:40:45.533Z,7.60
2023-04-02T05:44:00.677Z,7.62
2023-04-02T05:47:05.255Z,7.63
2023-04-02T05:50:21.592Z,7.60
2023-04-02T05:53:18.200Z,7.58
2023-04-02T05:56:20.441Z,7.54
2023-04-02T05:59:25.156Z,7.49
2023-04-02T06:02:40.623Z,7.44
2023-04-02T06:05:44.714Z,7.44
2023-04-02T06:08:58.774Z,7.43
2023-04-02T06:12:19.699Z,7.42
2023-04-02T06:15:14.685Z,7.43
2023-04-02T06:18:28.713Z,7.46
2023-04-02T06:21:33.059Z,7.48
2023-04-02T06:24:46.047Z,7.52
2023-04-02T06:27:38.133Z,7.57
2023-04-02T06:30:34.967Z,7.62
2023-04-02T06:33:38.851Z,7.66
2023-04-02T06:36:43.028Z,7.70
2023-04-02T06:39:36.708Z,7.74
2023-04-02T06:42:32.912Z,7.80
2023-04-02T06:45:31.367Z,7.87
2023-04-02T06:48:45.973Z,7.88
2023-04-02T06:51:52.605Z,7.88
2023-04-02T06:55:07.077Z,7.90
2023-04-02T06:58:08.468Z,7.90
2023-04-02T07:01:07.225Z,7.88
2023-04-02T07:04:04.478Z,7.89
2023-04-02T07:07:10.839Z,7.92
2023-04-02T07:10:32.264Z,7.94
2023-04-02T07:13:42.597Z,7.98
2023-04-02T07:16:52.997Z,8.00
2023-04-02T07:20:03.444Z,8.02
2023-04-02T07:23:09.704Z,8.06
2023-04-02T07:26:15.462Z,8.18
2023-04-02T07:29:20.481Z,8.29
2023-04-02T07:32:19.699Z,8.38
2023-04-02T07:35:10.543Z,8.49
2023-04-02T07:38:01.136Z,8.58
2023-04-02T07:40:51.726Z,8.64
2023-04-02T07:44:11.531Z,8.76
2023-04-02T07:47:29.930Z,8.86
2023-04-02T07:50:37.989Z,8.90
2023-04-02T07:53:37.309Z,8.95
2023-04-02T07:56:39.487Z,9.01
2023-04-02T07:59:40.858Z,9.00
2023-04-02T08:02:39.508Z,9.02
2023-04-02T08:05:32.363Z,9.09
2023-04-02T08:08:36.665Z,9.17
2023-04-02T08:11:34.328Z,9.26
2023-04-02T08:14:40.453Z,9.44
2023-04-02T08:17:31.656Z,9.62
2023-04-02T08:20:37.262Z,9.79
2023-04-02T08:23:30.664Z,9.94
2023-04-02T08:26:31.260Z,10.03
2023-04-02T08:29:33.640Z,10.17
2023-04-02T08:32:32.875Z,10.39
2023-04-02T08:35:27.358Z,10.57
2023-04-02T08:38:22.498Z,10.75
2023-04-02T08:41:18.478Z,11.00
2023-04-02T08:44:18.781Z,11.63
2023-04-02T08:47:09.921Z,11.99
2023-04-02T08:50:04.186Z,12.36
2023-04-02T08:52:56.740Z,12.98
2023-04-02T08:55:50.709Z,13.28
2023-04-02T08:58:43.106Z,13.37
2023-04-02T09:01:40.079Z,13.26
2023-04-02T09:04:41.294Z,13.16
2023-04-02T09:07:35.408Z,13.39
2023-04-02T09:10:35.881Z,13.97
2023-04-02T09:13:29.326Z,14.05
2023-04-02T09:16:25.633Z,14.03
2023-04-02T09:19:18.367Z,14.03
2023-04-02T09:22:10.328Z,13.69
2023-04-02T09:25:01.545Z,13.29
2023-04-02T09:27:53.720Z,12.97
2023-04-02T09:30:48.349Z,12.88
2023-04-02T09:33:54.822Z,13.00
2023-04-02T09:36:48.141Z,13.19
2023-04-02T09:39:41.229Z,13.30
2023-04-02T09:42:35.232Z,13.66
2023-04-02T09:45:28.767Z,15.27
2023-04-02T09:48:26.789Z,15.45
2023-04-02T09:51:20.333Z,15.21
2023-04-02T09:54:15.487Z,14.88
2023-04-02T09:57:06.645Z,14.52
2023-04-02T10:00:21.845Z,14.30
2023-04-02T10:03:26.947Z,14.04
2023-04-02T10:06:17.383Z,13.83
2023-04-02T10:09:32.615Z,13.66
2023-04-02T10:12:26.086Z,13.59
2023-04-02T10:15:19.299Z,13.71
2023-04-02T10:18:14.477Z,13.86
2023-04-02T10:21:05.792Z,13.86
2023-04-02T10:23:58.524Z,13.77
2023-04-02T10:26:55.194Z,13.76
2023-04-02T10:30:02.800Z,13.75
2023-04-02T10:32:57.751Z,13.73
2023-04-02T10:35:54.279Z,13.70
2023-04-02T10:38:48.445Z,13.61
2023-04-02T10:41:42.391Z,13.43
2023-04-02T10:44:47.206Z,13.21
2023-04-02T10:47:41.722Z,13.18
2023-04-02T10:50:40.254Z,13.36
2023-04-02T10:53:35.065Z,13.82
2023-04-02T10:56:29.827Z,14.19
2023-04-02T10:59:26.378Z,14.33
2023-04-02T11:02:32.121Z,14.33
2023-04-02T11:05:29.436Z,14.21
2023-04-02T11:08:25.878Z,14.05
2023-04-02T11:11:20.068Z,13.79
2023-04-02T11:14:14.441Z,13.50
2023-04-02T11:17:05.321Z,13.27
2023-04-02T11:19:56.274Z,13.06
2023-04-02T11:22:47.625Z,12.87
2023-04-02T11:25:38.044Z,12.67
2023-04-02T11:28:31.034Z,12.50
2023-04-02T11:31:22.974Z,12.40
2023-04-02T11:34:38.910Z,12.36
2023-04-02T11:37:34.197Z,12.44
2023-04-02T11:40:45.000Z,12.60
2023-04-02T11:43:52.303Z,12.86
2023-04-02T11:46:45.626Z,13.20
2023-04-02T11:49:36.629Z,13.64
2023-04-02T11:52:29.046Z,14.29
2023-04-02T11:55:33.222Z,15.08
2023-04-02T11:58:49.216Z,16.04
2023-04-02T12:01:50.533Z,16.88
2023-04-02T12:05:04.545Z,19.12
2023-04-02T12:08:11.367Z,19.92
2023-04-02T12:11:02.659Z,20.36
2023-04-02T12:13:53.856Z,21.34
2023-04-02T12:16:44.022Z,21.43
2023-04-02T12:19:34.465Z,22.12
2023-04-02T12:22:25.710Z,22.36
2023-04-02T12:25:24.639Z,22.18
2023-04-02T12:28:19.992Z,21.73
2023-04-02T12:31:17.844Z,21.11
2023-04-02T12:34:15.430Z,20.42
2023-04-02T12:37:07.210Z,19.99
2023-04-02T12:39:58.655Z,19.80
2023-04-02T12:42:48.726Z,19.58
2023-04-02T12:45:39.966Z,19.20
2023-04-02T12:48:31.385Z,18.66
2023-04-02T12:51:25.767Z,18.25
2023-04-02T12:54:20.602Z,18.06
2023-04-02T12:57:24.642Z,18.13
2023-04-02T13:00:36.262Z,19.01
2023-04-02T13:03:29.192Z,21.09
2023-04-02T13:06:24.470Z,21.53
2023-04-02T13:09:29.621Z,21.95
2023-04-02T13:12:33.980Z,23.36
2023-04-02T13:15:26.651Z,25.02
2023-04-02T13:18:23.266Z,26.64
2023-04-02T13:21:28.506Z,26.78
2023-04-02T13:24:19.291Z,26.71
2023-04-02T13:27:12.767Z,27.43
2023-04-02T13:30:09.815Z,28.21
2023-04-02T13:33:00.155Z,28.64
2023-04-02T13:35:51.083Z,29.09
2023-04-02T13:38:41.346Z,29.45
2023-04-02T13:41:32.745Z,29.35
2023-04-02T13:44:26.103Z,29.10
2023-04-02T13:47:17.214Z,28.95
2023-04-02T13:50:17.090Z,28.83
2023-04-02T13:53:14.657Z,28.32
2023-04-02T13:56:08.627Z,27.87
2023-04-02T13:58:59.286Z,27.73
2023-04-02T14:01:51.067Z,27.59
2023-04-02T14:04:44.539Z,27.54
2023-04-02T14:07:50.965Z,27.31
2023-04-02T14:10:56.306Z,27.17
2023-04-02T14:14:04.364Z,27.10
2023-04-02T14:17:00.906Z,27.21
2023-04-02T14:20:08.762Z,26.99
2023-04-02T14:23:07.047Z,26.69
2023-04-02T14:26:02.438Z,26.25
2023-04-02T14:28:57.867Z,25.57
2023-04-02T14:31:50.082Z,24.85
2023-04-02T14:34:47.350Z,24.17
2023-04-02T14:37:41.331Z,23.61
2023-04-02T14:40:38.349Z,23.04
2023-04-02T14:43:32.086Z,22.56
2023-04-02T14:46:26.044Z,22.18
2023-04-02T14:49:23.112Z,21.92
2023-04-02T14:52:15.141Z,21.49
2023-04-02T14:55:11.785Z,21.14
2023-04-02T14:58:06.634Z,20.79
2023-04-02T15:01:03.959Z,20.37
2023-04-02T15:03:57.802Z,20.06
2023-04-02T15:06:50.475Z,19.79
2023-04-02T15:09:43.636Z,19.44
2023-04-02T15:12:37.506Z,19.08
2023-04-02T15:15:40.306Z,18.80
2023-04-02T15:18:31.334Z,18.56
2023-04-02T15:21:49.818Z,18.26
2023-04-02T15:24:51.035Z,17.93
2023-04-02T15:27:55.713Z,17.64
2023-04-02T15:30:46.610Z,17.38
2023-04-02T15:33:59.504Z,17.06
2023-04-02T15:37:06.246Z,16.72
2023-04-02T15:40:04.744Z,16.48
2023-04-02T15:43:00.049Z,16.25
2023-04-02T15:45:53.084Z,16.05
2023-04-02T15:49:09.157Z,15.93
2023-04-02T15:52:06.858Z,15.71
2023-04-02T15:55:12.409Z,15.57
2023-04-02T15:58:22.087Z,15.43
2023-04-02T16:01:22.346Z,15.20
2023-04-02T16:04:29.266Z,15.12
2023-04-02T16:07:25.553Z,15.00
2023-04-02T16:10:30.219Z,14.87
2023-04-02T16:13:28.294Z,14.73
2023-04-02T16:16:20.858Z,14.59
2023-04-02T16:19:18.729Z,14.51
2023-04-02T16:22:13.387Z,14.35
2023-04-02T16:25:16.067Z,14.27
2023-04-02T16:28:15.268Z,14.22
2023-04-02T16:31:12.103Z,14.16
2023-04-02T16:34:08.009Z,14.09
2023-04-02T16:37:01.656Z,13.99
2023-04-02T16:39:54.469Z,13.89
2023-04-02T16:42:54.553Z,13.78
2023-04-02T16:45:50.462Z,13.69
2023-04-02T16:48:45.762Z,13.65
2023-04-02T16:51:39.706Z,13.52
2023-04-02T16:54:32.538Z,13.36
2023-04-02T16:57:40.901Z,13.22
2023-04-02T17:00:37.247Z,13.11
2023-04-02T17:03:37.659Z,12.96
2023-04-02T17:06:33.852Z,12.84
2023-04-02T17:09:34.714Z,12.73
2023-04-02T17:12:38.512Z,12.58
2023-04-02T17:15:34.897Z,12.42
2023-04-02T17:18:26.740Z,12.27
2023-04-02T17:21:26.361Z,12.06
2023-04-02T17:24:42.085Z,11.85
2023-04-02T17:27:34.383Z,11.73
2023-04-02T17:30:30.775Z,11.64
2023-04-02T17:33:32.315Z,11.52
2023-04-02T17:36:44.915Z,11.42
2023-04-02T17:39:59.591Z,11.31
2023-04-02T17:43:02.830Z,11.22
2023-04-02T17:45:54.443Z,11.17
2023-04-02T17:48:47.363Z,11.10
2023-04-02T17:51:53.291Z,11.04
2023-04-02T17:55:03.554Z,10.96
2023-04-02T17:58:01.530Z,10.88
2023-04-02T18:01:13.944Z,10.80
2023-04-02T18:04:23.214Z,10.70
2023-04-02T18:07:22.523Z,10.60
2023-04-02T18:10:26.466Z,10.51
2023-04-02T18:13:34.803Z,10.42
2023-04-02T18:16:48.808Z,10.32
2023-04-02T18:19:55.510Z,10.22
2023-04-02T18:22:52.452Z,10.09
2023-04-02T18:25:55.333Z,9.97
2023-04-02T18:29:01.363Z,9.85
2023-04-02T18:32:05.988Z,9.71
2023-04-02T18:35:07.082Z,9.58
2023-04-02T18:38:02.853Z,9.49
2023-04-02T18:41:44.734Z,9.37
2023-04-02T18:44:52.071Z,9.27
2023-04-02T18:48:09.071Z,9.17
2023-04-02T18:51:15.194Z,9.09
2023-04-02T18:54:23.766Z,9.00
2023-04-02T18:57:29.982Z,8.92
2023-04-02T19:00:36.786Z,8.86
2023-04-02T19:03:50.367Z,8.82
2023-04-02T19:07:03.493Z,8.79
2023-04-02T19:09:58.373Z,8.76
2023-04-02T19:13:14.988Z,8.72
2023-04-02T19:16:22.834Z,8.67
2023-04-02T19:19:38.436Z,8.63
2023-04-02T19:22:36.045Z,8.59
2023-04-02T19:25:54.870Z,8.55
2023-04-02T19:28:52.918Z,8.50
2023-04-02T19:32:08.986Z,8.43
2023-04-02T19:35:22.006Z,8.38
2023-04-02T19:38:42.617Z,8.32
2023-04-02T19:41:54.295Z,8.27
2023-04-02T19:45:05.339Z,8.22
2023-04-02T19:48:13.528Z,8.17
2023-04-02T19:51:13.919Z,8.13
2023-04-02T19:54:07.425Z,8.10
2023-04-02T19:57:18.003Z,8.08
2023-04-02T20:00:15.086Z,8.06
2023-04-02T20:03:25.472Z,8.07
2023-04-02T20:06:36.071Z,8.08
2023-04-02T20:09:46.736Z,8.08
2023-04-02T20:12:50.686Z,8.06
2023-04-02T20:16:02.011Z,8.05
2023-04-02T20:19:12.405Z,8.01
2023-04-02T20:22:15.696Z,7.97
2023-04-02T20:25:18.812Z,7.92
2023-04-02T20:28:23.201Z,7.87
2023-04-02T20:31:33.726Z,7.81
2023-04-02T20:34:38.057Z,7.76
2023-04-02T20:37:29.555Z,7.72
2023-04-02T20:40:41.944Z,7.69
2023-04-02T20:43:34.910Z,7.67
2023-04-02T20:46:25.792Z,7.68
2023-04-02T20:49:36.218Z,7.69
2023-04-02T20:52:30.421Z,7.69
2023-04-02T20:55:21.801Z,7.69
2023-04-02T20:58:28.890Z,7.66
2023-04-02T21:01:27.611Z,7.63
2023-04-02T21:04:22.119Z,7.59
2023-04-02T21:07:15.022Z,7.55
2023-04-02T21:10:25.562Z,7.52
2023-04-02T21:13:31.967Z,7.50
2023-04-02T21:16:42.673Z,7.47
2023-04-02T21:19:51.438Z,7.43
2023-04-02T21:22:55.912Z,7.39
2023-04-02T21:25:58.179Z,7.36
2023-04-02T21:29:12.342Z,7.34
2023-04-02T21:32:11.121Z,7.34
2023-04-02T21:35:29.228Z,7.35
2023-04-02T21:38:34.814Z,7.36
2023-04-02T21:41:32.081Z,7.39
2023-04-02T21:44:33.050Z,7.40
2023-04-02T21:47:26.295Z,7.42
2023-04-02T21:50:25.972Z,7.43
2023-04-02T21:53:30.793Z,7.42
2023-04-02T21:56:23.201Z,7.40
2023-04-02T21:59:24.533Z,7.37
2023-04-02T22:02:35.100Z,7.31
2023-04-02T22:05:47.034Z,7.27
2023-04-02T22:08:39.825Z,7.24
2023-04-02T22:11:31.553Z,7.21
2023-04-02T22:14:35.154Z,7.16
2023-04-02T22:17:28.382Z,7.13
2023-04-02T22:20:21.934Z,7.10
2023-04-02T22:23:35.637Z,7.10
2023-04-02T22:26:27.592Z,7.11
2023-04-02T22:29:38.195Z,7.11
2023-04-02T22:32:29.058Z,7.11
2023-04-02T22:35:19.555Z,7.11
2023-04-02T22:38:10.322Z,7.11
2023-04-02T22:41:07.675Z,7.12
2023-04-02T22:43:58.245Z,7.14
2023-04-02T22:46:52.630Z,7.13
2023-04-02T22:50:04.072Z,7.10
2023-04-02T22:53:03.085Z,7.08
2023-04-02T22:55:53.975Z,7.05
2023-04-02T22:58:46.164Z,7.01
2023-04-02T23:01:47.678Z,6.97
2023-04-02T23:04:40.643Z,6.92
2023-04-02T23:07:30.960Z,6.87
2023-04-02T23:10:24.425Z,6.83
2023-04-02T23:13:58.170Z,6.79
2023-04-02T23:16:55.070Z,6.76
2023-04-02T23:19:59.242Z,6.73
2023-04-02T23:23:02.630Z,6.71
2023-04-02T23:26:14.123Z,6.68
2023-04-02T23:29:21.022Z,6.65
2023-04-02T23:32:25.112Z,6.64
2023-04-02T23:35:28.358Z,6.64
2023-04-02T23:38:22.002Z,6.65
2023-04-02T23:41:32.906Z,6.68
2023-04-02T23:44:43.345Z,6.72
2023-04-02T23:47:56.635Z,6.77
2023-04-02T23:51:03.873Z,6.82
2023-04-02T23:53:56.758Z,6.85
2023-04-02T23:57:07.189Z,6.87
